Time;durP1;ratioP1;P1;durP2;ratioP2;P2;SDS_P1;SDS_P2;PMS_P1;PMS_P2;Temp;Humidity;BMP_temperature;BMP_pressure;BME280_temperature;BME280_humidity;BME280_pressure;Samples;Min_cycle;Max_cycle;Signal;HPM_P1;HPM_P2
2023/01/31 00:01:40;;;;;;;14.90;7.70;;;;;;;;;;10328550;28;20037;-86
2023/01/31 00:06:42;;;;;;;27.33;10.90;;;;;;;;;;10326110;28;20373;-86
2023/01/31 00:11:43;;;;;;;20.23;8.93;;;;;;;;;;10326800;28;20037;-85
2023/01/31 00:16:44;;;;;;;21.03;8.67;;;;;;;;;;10311412;28;20038;-86
2023/01/31 00:21:45;;;;;;;24.30;9.53;;;;;;;;;;10325788;28;20054;-85
2023/01/31 00:26:47;;;;;;;16.10;7.87;;;;;;;;;;10329630;28;20080;-88
2023/01/31 00:31:48;;;;;;;18.27;8.07;;;;;;;;;;10325241;28;20034;-86
2023/01/31 00:36:49;;;;;;;17.17;7.90;;;;;;;;;;10323239;28;20482;-85
2023/01/31 00:41:50;;;;;;;19.03;7.77;;;;;;;;;;10327895;28;20514;-83
2023/01/31 00:46:50;;;;;;;19.70;8.23;;;1.80;99.90;;;;;;10326341;28;20030;-84
2023/01/31 00:51:51;;;;;;;16.90;7.43;;;1.80;99.90;;;;;;10323478;28;20034;-84
2023/01/31 00:56:52;;;;;;;20.57;8.20;;;1.70;99.90;;;;;;10327285;28;20037;-84
2023/01/31 01:01:52;;;;;;;27.03;8.07;;;1.70;99.90;;;;;;10324684;28;20034;-83
2023/01/31 01:06:53;;;;;;;28.17;10.47;;;1.80;99.90;;;;;;10326329;28;20037;-84
2023/01/31 01:11:53;;;;;;;23.07;7.73;;;1.80;99.90;;;;;;10323796;28;20067;-84
2023/01/31 01:16:57;;;;;;;28.47;10.00;;;1.80;99.90;;;;;;10322952;28;20037;-84
2023/01/31 01:21:57;;;;;;;16.00;5.53;;;1.90;99.90;;;;;;10305931;28;20057;-83
2023/01/31 01:26:58;;;;;;;22.57;6.17;;;1.90;99.90;;;;;;10324698;28;20064;-83
2023/01/31 01:31:59;;;;;;;27.60;6.60;;;1.90;99.90;;;;;;10324959;28;20027;-83
2023/01/31 01:36:59;;;;;;;17.80;6.13;;;1.90;99.90;;;;;;10323205;28;20065;-83
2023/01/31 01:42:00;;;;;;;20.77;7.83;;;1.90;99.90;;;;;;10323569;28;20045;-84
2023/01/31 01:47:01;;;;;;;15.40;4.80;;;1.90;99.90;;;;;;10323048;28;20041;-84
2023/01/31 01:52:05;;;;;;;11.90;3.47;;;1.90;99.90;;;;;;10321833;28;20402;-84
2023/01/31 01:57:07;;;;;;;10.83;4.23;;;2.00;99.90;;;;;;10322401;28;20033;-84
2023/01/31 02:02:08;;;;;;;15.20;3.80;;;2.00;99.90;;;;;;10323984;28;20034;-83
2023/01/31 02:07:09;;;;;;;13.67;2.70;;;2.00;99.90;;;;;;10323425;28;20934;-84
2023/01/31 02:12:11;;;;;;;5.67;2.37;;;2.00;99.90;;;;;;10322273;28;20608;-83
2023/01/31 02:17:17;;;;;;;7.00;2.27;;;2.10;99.90;;;;;;10324028;28;20528;-83
2023/01/31 02:22:20;;;;;;;10.00;2.23;;;2.10;99.90;;;;;;10324892;28;20831;-83
2023/01/31 02:27:34;;;;;;;9.30;2.30;;;2.00;99.90;;;;;;10323715;28;20108;-84
2023/01/31 02:33:02;;;;;;;9.97;1.93;;;2.00;99.90;;;;;;10303571;28;20045;-84
2023/01/31 02:38:26;;;;;;;16.77;4.37;;;2.00;99.90;;;;;;10326236;28;20406;-84
2023/01/31 02:43:32;;;;;;;12.80;4.87;;;;;;;;;;10332133;28;20037;-83
2023/01/31 02:48:52;;;;;;;16.90;4.97;;;;;;;;;;10329826;28;20388;-85
2023/01/31 02:53:55;;;;;;;17.13;5.67;;;;;;;;;;10330356;28;20149;-84
2023/01/31 02:59:03;;;;;;;14.80;4.40;;;;;;;;;;10330943;28;20133;-83
2023/01/31 03:04:06;;;;;;;12.23;2.60;;;;;;;;;;10329624;28;20536;-83
2023/01/31 03:09:20;;;;;;;17.47;3.10;;;;;;;;;;10330020;28;20045;-85
2023/01/31 03:14:29;;;;;;;11.73;3.00;;;;;;;;;;10329827;28;20496;-84
2023/01/31 03:19:33;;;;;;;13.13;2.77;;;;;;;;;;10329411;28;20038;-83
2023/01/31 03:24:34;;;;;;;5.03;2.00;;;;;;;;;;10328253;28;20145;-84
2023/01/31 03:29:37;;;;;;;8.00;2.53;;;;;;;;;;10326978;28;20038;-84
2023/01/31 03:34:38;;;;;;;10.53;3.73;;;;;;;;;;10327327;28;21291;-85
2023/01/31 03:39:57;;;;;;;22.00;5.67;;;;;;;;;;10327456;28;20038;-86
2023/01/31 03:45:02;;;;;;;18.47;5.57;;;;;;;;;;10327588;28;20606;-85
2023/01/31 03:50:07;;;;;;;14.37;6.83;;;;;;;;;;10308787;28;20107;-84
2023/01/31 03:55:34;;;;;;;12.87;4.77;;;;;;;;;;10327659;28;20030;-86
2023/01/31 04:00:40;;;;;;;21.93;3.97;;;;;;;;;;10326957;28;20120;-85
2023/01/31 04:05:41;;;;;;;9.95;2.90;;;;;;;;;;10317177;28;20397;-87
2023/01/31 04:10:42;;;;;;;10.57;2.43;;;;;;;;;;10329049;28;20036;-85
2023/01/31 04:15:43;;;;;;;18.63;2.90;;;;;;;;;;10336504;28;20038;-86
2023/01/31 04:20:44;;;;;;;9.60;2.20;;;;;;;;;;10344423;28;20424;-84
2023/01/31 04:25:45;;;;;;;11.87;1.93;;;;;;;;;;10363580;28;20125;-85
2023/01/31 04:30:51;;;;;;;7.43;1.67;;;;;;;;;;10356931;28;20149;-86
2023/01/31 04:35:52;;;;;;;6.15;1.45;;;;;;;;;;10354724;28;20065;-85
2023/01/31 04:40:53;;;;;;;12.33;2.70;;;;;;;;;;10363667;28;20117;-85
2023/01/31 04:45:54;;;;;;;6.70;1.87;;;;;;;;;;10351273;28;20390;-84
2023/01/31 04:50:55;;;;;;;7.03;2.43;;;;;;;;;;10344062;28;20036;-85
2023/01/31 04:55:56;;;;;;;8.23;2.27;;;;;;;;;;10356327;28;20477;-87
2023/01/31 05:00:57;;;;;;;4.33;1.90;;;;;;;;;;10346261;28;20029;-85
2023/01/31 05:05:58;;;;;;;6.00;2.50;;;;;;;;;;10345646;28;20127;-87
2023/01/31 05:11:00;;;;;;;8.60;4.33;;;;;;;;;;10314469;28;20371;-83
2023/01/31 05:16:01;;;;;;;14.53;5.70;;;;;;;;;;10337797;28;20064;-81
2023/01/31 05:21:02;;;;;;;20.07;6.57;;;;;;;;;;10336309;28;20080;-86
2023/01/31 05:26:03;;;;;;;27.60;7.93;;;;;;;;;;10332189;28;20087;-87
2023/01/31 05:31:06;;;;;;;18.73;6.80;;;;;;;;;;10349199;28;20038;-87
2023/01/31 05:36:15;;;;;;;32.03;9.70;;;;;;;;;;10344780;28;20129;-86
2023/01/31 05:41:16;;;;;;;30.57;8.47;;;;;;;;;;10340506;28;20519;-86
2023/01/31 05:46:17;;;;;;;25.27;9.73;;;;;;;;;;10344983;28;20121;-88
2023/01/31 05:51:18;;;;;;;35.47;9.37;;;;;;;;;;10362835;28;20022;-86
2023/01/31 05:56:19;;;;;;;24.33;7.47;;;;;;;;;;10362608;28;20047;-86
2023/01/31 06:01:20;;;;;;;25.23;7.47;;;;;;;;;;10362611;28;20096;-87
2023/01/31 06:06:21;;;;;;;21.83;6.07;;;;;;;;;;10362394;28;20060;-86
2023/01/31 06:11:24;;;;;;;11.83;3.83;;;;;;;;;;10362206;28;20026;-85
2023/01/31 06:16:25;;;;;;;9.47;3.93;;;;;;;;;;10344222;28;20037;-87
2023/01/31 06:21:25;;;;;;;21.00;4.87;;;;;;;;;;10344584;28;20112;-86
2023/01/31 06:26:26;;;;;;;21.50;5.93;;;;;;;;;;10344506;28;20795;-86
2023/01/31 06:31:27;;;;;;;22.73;7.03;;;;;;;;;;10361316;28;20038;-87
2023/01/31 06:36:33;;;;;;;17.73;5.60;;;;;;;;;;10361293;28;20477;-85
2023/01/31 06:41:33;;;;;;;26.13;8.10;;;;;;;;;;10343543;28;20128;-88
2023/01/31 06:46:35;;;;;;;31.23;10.60;;;;;;;;;;10343660;28;20709;-86
2023/01/31 06:51:36;;;;;;;26.67;8.97;;;;;;;;;;10362084;28;20029;-86
2023/01/31 06:56:37;;;;;;;35.30;6.60;;;;;;;;;;10360732;28;20116;-86
2023/01/31 07:01:38;;;;;;;16.83;4.50;;;;;;;;;;10361370;28;20699;-85
2023/01/31 07:06:39;;;;;;;23.23;7.50;;;;;;;;;;10360608;28;20030;-86
2023/01/31 07:11:40;;;;;;;20.13;5.93;;;;;;;;;;10343763;28;20079;-86
2023/01/31 07:16:41;;;;;;;27.27;9.83;;;;;;;;;;10360681;28;20030;-86
2023/01/31 07:21:43;;;;;;;18.43;7.37;;;;;;;;;;10343605;28;20042;-85
2023/01/31 07:26:44;;;;;;;14.00;4.77;;;;;;;;;;10367763;28;20038;-86
2023/01/31 07:31:45;;;;;;;29.37;10.53;;;;;;;;;;10380187;28;20033;-85
2023/01/31 07:36:45;;;;;;;22.80;6.33;;;1.50;99.90;;;;;;10349538;28;20448;-85
2023/01/31 07:41:46;;;;;;;23.27;8.87;;;1.60;99.90;;;;;;10367121;28;20109;-86
2023/01/31 07:46:47;;;;;;;29.27;7.83;;;1.60;99.90;;;;;;10349370;28;20381;-86
2023/01/31 07:51:48;;;;;;;31.03;9.93;;;;;;;;;;10366532;28;20362;-85
2023/01/31 07:56:49;;;;;;;23.47;7.20;;;;;;;;;;10348258;28;20481;-85
2023/01/31 08:07:09;;;;;;;37.03;10.73;;;;;;;;;;10365872;28;20076;-86
2023/01/31 08:12:10;;;;;;;32.87;9.20;;;;;;;;;;10348782;28;20470;-85
2023/01/31 08:17:11;;;;;;;22.03;7.10;;;;;;;;;;10365374;28;20033;-86
2023/01/31 08:22:12;;;;;;;20.87;7.23;;;;;;;;;;10365446;28;20413;-85
2023/01/31 08:27:13;;;;;;;15.67;5.40;;;;;;;;;;10347899;28;20441;-88
2023/01/31 08:32:14;;;;;;;22.57;7.70;;;;;;;;;;10347386;28;20036;-86
2023/01/31 08:37:15;;;;;;;33.73;9.40;;;;;;;;;;10346620;28;20473;-86
2023/01/31 08:42:16;;;;;;;29.20;8.17;;;;;;;;;;10364504;28;20041;-86
2023/01/31 08:47:17;;;;;;;36.67;13.57;;;;;;;;;;10347215;28;20115;-85
2023/01/31 08:52:18;;;;;;;30.27;11.50;;;;;;;;;;10351866;28;20517;-88
2023/01/31 08:57:19;;;;;;;35.70;10.63;;;;;;;;;;10364009;28;20496;-90
2023/01/31 09:02:20;;;;;;;46.40;14.23;;;;;;;;;;10364618;28;20030;-86
2023/01/31 09:07:21;;;;;;;37.80;12.17;;;;;;;;;;10363761;28;20038;-88
2023/01/31 09:12:22;;;;;;;63.03;18.83;;;;;;;;;;10345448;28;20397;-87
2023/01/31 09:17:23;;;;;;;33.07;13.13;;;;;;;;;;10345468;28;20044;-86
2023/01/31 09:22:24;;;;;;;50.23;16.90;;;;;;;;;;10345271;28;20065;-89
2023/01/31 09:27:25;;;;;;;47.37;15.27;;;;;;;;;;10345794;28;20755;-88
2023/01/31 09:32:26;;;;;;;38.53;13.50;;;;;;;;;;10344785;28;20034;-86
2023/01/31 09:37:30;;;;;;;26.20;10.70;;;;;;;;;;10344587;28;20046;-88
2023/01/31 09:42:36;;;;;;;31.50;8.60;;;;;;;;;;10362304;28;20068;-85
2023/01/31 09:47:38;;;;;;;40.58;13.75;;;;;;;;;;10361329;28;20473;-86
2023/01/31 09:52:39;;;;;;;46.23;16.43;;;;;;;;;;10344311;28;20486;-86
2023/01/31 09:57:50;;;;;;;28.60;6.60;;;;;;;;;;10362442;28;20038;-85
2023/01/31 10:02:58;;;;;;;28.90;7.40;;;;;;;;;;10324397;28;20062;-86
2023/01/31 10:07:59;;;;;;;40.83;15.47;;;;;;;;;;10343833;28;20084;-88
2023/01/31 10:13:03;;;;;;;33.57;11.40;;;;;;;;;;10361978;28;20084;-87
2023/01/31 10:18:12;;;;;;;33.40;12.33;;;;;;;;;;10360792;28;20046;-86
2023/01/31 10:23:30;;;;;;;33.47;12.07;;;;;;;;;;10344496;28;20764;-86
2023/01/31 10:28:35;;;;;;;48.90;15.67;;;;;;;;;;10361439;28;20508;-88
2023/01/31 10:34:01;;;;;;;30.87;12.37;;;3.30;99.90;;;;;;10362674;28;20038;-87
2023/01/31 10:39:17;;;;;;;52.55;18.27;;;;;;;;;;10343809;28;20073;-89
2023/01/31 10:44:18;;;;;;;;;;;;;;;;;;10344519;28;20125;-89
2023/01/31 10:49:21;;;;;;;49.67;18.23;;;;;;;;;;10360072;28;20269;-88
2023/01/31 10:54:35;;;;;;;47.10;17.30;;;;;;;;;;10344118;28;20638;-88
2023/01/31 10:59:38;;;;;;;43.63;17.13;;;;;;;;;;10350869;28;20045;-86
2023/01/31 11:04:42;;;;;;;43.53;15.50;;;;;;;;;;10351088;28;20449;-86
2023/01/31 11:09:47;;;;;;;36.37;13.40;;;;;;;;;;10368878;28;20030;-87
2023/01/31 11:15:07;;;;;;;34.13;15.13;;;;;;;;;;10350522;28;20022;-86
2023/01/31 11:20:18;;;;;;;45.60;18.17;;;;;;;;;;10350593;28;20056;-89
2023/01/31 11:25:23;;;;;;;41.50;17.33;;;;;;;;;;10350108;28;20037;-86
2023/01/31 11:30:29;;;;;;;35.77;12.07;;;;;;;;;;10347088;28;20034;-87
2023/01/31 11:35:31;;;;;;;56.30;23.63;;;;;;;;;;10349703;28;20037;-86
2023/01/31 11:40:33;;;;;;;52.93;22.80;;;;;;;;;;10366843;28;20040;-86
2023/01/31 11:45:36;;;;;;;38.07;12.93;;;;;;;;;;10366623;28;20084;-89
2023/01/31 11:50:39;;;;;;;55.73;22.97;;;;;;;;;;10367068;28;20581;-87
2023/01/31 11:55:40;;;;;;;37.33;13.53;;;;;;;;;;10367321;28;20037;-87
2023/01/31 12:00:51;;;;;;;27.53;8.33;;;;;;;;;;10348837;28;20042;-89
2023/01/31 12:05:59;;;;;;;40.93;13.27;;;;;;;;;;10348950;28;20033;-87
2023/01/31 12:11:03;;;;;;;27.87;10.13;;;;;;;;;;10347305;28;20025;-87
2023/01/31 12:16:05;;;;;;;35.30;12.60;;;;;;;;;;10347713;28;20095;-88
2023/01/31 12:21:12;;;;;;;27.27;8.93;;;;;;;;;;10347076;28;20057;-88
2023/01/31 12:26:20;;;;;;;38.30;14.37;;;;;;;;;;10347544;28;20462;-88
2023/01/31 12:31:29;;;;;;;41.67;15.20;;;;;;;;;;10347805;28;20048;-89
2023/01/31 12:36:36;;;;;;;33.50;14.33;;;;;;;;;;10347432;28;20132;-88
2023/01/31 12:41:41;;;;;;;42.20;16.37;;;;;;;;;;10347116;28;20052;-87
2023/01/31 12:46:52;;;;;;;31.87;13.17;;;;;;;;;;10346372;28;20029;-88
2023/01/31 12:52:04;;;;;;;51.83;19.97;;;;;;;;;;10364544;28;20272;-88
2023/01/31 12:57:11;;;;;;;30.40;8.53;;;;;;;;;;10346918;28;20533;-88
2023/01/31 13:02:32;;;;;;;30.57;10.70;;;;;;;;;;10346364;28;20071;-88
2023/01/31 13:07:59;;;;;;;32.77;12.33;;;;;;;;;;10335888;28;20063;-87
2023/01/31 13:13:02;;;;;;;46.47;17.33;;;;;;;;;;10341934;28;20038;-88
2023/01/31 13:18:04;;;;;;;48.60;21.67;;;;;;;;;;10322692;28;20081;-88
2023/01/31 13:23:39;;;;;;;59.63;21.90;;;2.70;99.90;;;;;;10352730;28;20133;-88
2023/01/31 13:28:49;;;;;;;33.90;12.20;;;2.70;99.90;;;;;;10348294;28;20516;-87
2023/01/31 13:33:57;;;;;;;43.23;14.00;;;2.80;99.90;;;;;;10353601;28;20393;-87
2023/01/31 13:39:04;;;;;;;45.90;17.13;;;2.80;99.90;;;;;;10362008;28;20084;-87
2023/01/31 13:44:08;;;;;;;48.57;19.00;;;2.80;99.90;;;;;;10362856;28;20034;-89
2023/01/31 13:49:22;;;;;;;48.27;19.43;;;2.80;99.90;;;;;;10345353;28;20026;-88
2023/01/31 13:54:36;;;;;;;60.13;22.13;;;2.90;99.90;;;;;;10343308;28;20390;-88
2023/01/31 13:59:37;;;;;;;49.13;19.27;;;2.90;99.90;;;;;;10342898;28;20034;-90
2023/01/31 14:04:38;;;;;;;51.97;19.17;;;3.10;99.90;;;;;;10360393;28;20034;-90
2023/01/31 14:10:02;;;;;;;67.80;22.17;;;;;;;;;;10356016;28;20037;-89
2023/01/31 14:15:23;;;;;;;63.23;22.63;;;;;;;;;;10335748;28;20042;-87
2023/01/31 14:20:28;;;;;;;40.63;15.13;;;2.90;99.90;;;;;;10344194;28;20061;-87
2023/01/31 14:25:41;;;;;;;46.63;16.83;;;3.00;99.90;;;;;;10343404;28;20045;-87
2023/01/31 14:30:46;;;;;;;44.83;16.00;;;2.90;99.90;;;;;;10343886;28;20037;-87
2023/01/31 14:36:17;;;;;;;52.33;19.07;;;2.80;99.90;;;;;;10351797;28;20743;-88
2023/01/31 14:41:37;;;;;;;76.20;27.60;;;;;;;;;;10338367;28;20022;-90
2023/01/31 14:47:17;;;;;;;54.37;20.27;;;2.70;99.90;;;;;;10351463;28;20037;-87
2023/01/31 14:52:36;;;;;;;74.10;28.90;;;;;;;;;;10366307;28;20686;-90
2023/01/31 14:57:42;;;;;;;107.47;41.30;;;;;;;;;;10351389;28;20033;-87
2023/01/31 15:02:53;;;;;;;87.82;27.83;;;2.50;99.90;;;;;;10351510;28;20385;-88
2023/01/31 15:07:57;;;;;;;66.17;25.10;;;;;;;;;;10350502;28;20056;-86
2023/01/31 15:12:59;;;;;;;156.40;55.83;;;2.20;99.90;;;;;;10350937;28;20030;-88
2023/01/31 15:18:06;;;;;;;120.70;48.17;;;;;;;;;;10367846;28;20117;-89
2023/01/31 15:23:15;;;;;;;99.10;39.90;;;;;;;;;;10368203;28;20108;-87
2023/01/31 15:28:17;;;;;;;93.20;38.77;;;;;;;;;;10349800;28;20033;-90
2023/01/31 15:33:21;;;;;;;90.50;38.73;;;;;;;;;;10349796;28;20026;-88
2023/01/31 15:38:28;;;;;;;92.60;39.23;;;1.90;99.90;;;;;;10349048;28;20089;-88
2023/01/31 15:43:29;;;;;;;93.40;37.77;;;;;;;;;;10347987;28;20523;-87
2023/01/31 15:48:30;;;;;;;126.43;50.60;;;;;;;;;;10366605;28;20021;-86
2023/01/31 15:53:31;;;;;;;110.77;46.03;;;1.90;99.90;;;;;;10366570;28;20087;-88
2023/01/31 15:58:35;;;;;;;147.50;58.37;;;1.90;99.90;;;;;;10364892;28;20957;-88
2023/01/31 16:03:42;;;;;;;125.57;51.07;;;1.90;99.90;;;;;;10340579;28;20062;-87
2023/01/31 16:08:42;;;;;;;114.77;47.23;;;1.90;99.90;;;;;;10333499;28;20034;-87
2023/01/31 16:13:43;;;;;;;105.93;44.93;;;;;;;;;;10332214;28;20511;-87
2023/01/31 16:18:48;;;;;;;85.50;38.13;;;;;;;;;;10346042;28;20107;-88
2023/01/31 16:23:59;;;;;;;69.00;30.07;;;;;;;;;;10338636;28;20525;-87
2023/01/31 16:29:05;;;;;;;76.73;33.33;;;;;;;;;;10346044;28;20522;-87
2023/01/31 16:34:14;;;;;;;67.77;30.80;;;;;;;;;;10347905;28;20030;-87
2023/01/31 16:39:26;;;;;;;76.80;31.13;;;;;;;;;;10359096;28;20042;-86
2023/01/31 16:44:33;;;;;;;83.13;37.40;;;1.90;99.90;;;;;;10359614;28;20486;-86
2023/01/31 16:49:36;;;;;;;87.33;34.90;;;1.90;99.90;;;;;;10313258;28;20699;-81
2023/01/31 16:54:44;;;;;;;87.93;35.37;;;;;;;;;;10351475;28;20134;-83
2023/01/31 16:59:47;;;;;;;84.10;37.23;;;;;;;;;;10363755;28;20049;-82
2023/01/31 17:04:50;;;;;;;95.90;40.47;;;;;;;;;;10357284;28;20034;-82
2023/01/31 17:09:55;;;;;;;111.93;45.10;;;;;;;;;;10350999;28;20046;-82
2023/01/31 17:14:58;;;;;;;135.60;52.47;;;;;;;;;;10347569;28;20042;-84
2023/01/31 17:19:59;;;;;;;137.60;58.40;;;;;;;;;;10343318;28;20129;-82
2023/01/31 17:25:00;;;;;;;156.50;62.27;;;;;;;;;;10361250;28;20549;-82
2023/01/31 17:30:01;;;;;;;192.70;73.13;;;;;;;;;;10347781;28;20033;-83
2023/01/31 17:35:08;;;;;;;142.50;57.37;;;;;;;;;;10359225;28;20025;-82
2023/01/31 17:40:10;;;;;;;138.47;54.57;;;;;;;;;;10360404;28;20057;-83
2023/01/31 17:45:12;;;;;;;122.70;53.20;;;;;;;;;;10335109;28;20725;-83
2023/01/31 17:50:19;;;;;;;166.33;62.70;;;;;;;;;;10353593;28;20510;-83
2023/01/31 17:55:22;;;;;;;136.70;55.63;;;;;;;;;;10351161;28;20030;-83
2023/01/31 18:00:23;;;;;;;109.00;47.77;;;;;;;;;;10350365;28;20053;-83
2023/01/31 18:05:24;;;;;;;101.47;47.60;;;;;;;;;;10365168;28;20037;-83
2023/01/31 18:10:25;;;;;;;106.43;46.60;;;;;;;;;;10338319;28;20033;-84
2023/01/31 18:15:26;;;;;;;102.97;43.17;;;;;;;;;;10353613;28;20042;-83
2023/01/31 18:20:27;;;;;;;96.47;42.63;;;;;;;;;;10346638;28;20054;-83
2023/01/31 18:25:29;;;;;;;103.93;44.50;;;;;;;;;;10345087;28;20034;-84
2023/01/31 18:30:30;;;;;;;75.23;33.83;;;;;;;;;;10351394;28;20487;-85
2023/01/31 18:35:31;;;;;;;102.43;43.53;;;;;;;;;;10352312;28;20029;-83
2023/01/31 18:40:32;;;;;;;92.57;38.67;;;;;;;;;;10347640;28;20034;-82
2023/01/31 18:45:33;;;;;;;86.97;36.27;;;;;;;;;;10353878;28;20033;-87
2023/01/31 18:50:34;;;;;;;76.00;32.77;;;;;;;;;;10355516;28;20574;-84
2023/01/31 18:55:35;;;;;;;92.37;38.47;;;;;;;;;;10361296;28;20650;-87
2023/01/31 19:00:36;;;;;;;78.17;32.60;;;;;;;;;;10348351;28;20486;-88
2023/01/31 19:05:37;;;;;;;87.73;36.37;;;;;;;;;;10349451;28;20049;-86
2023/01/31 19:10:38;;;;;;;92.60;39.37;;;;;;;;;;10352364;28;20281;-87
2023/01/31 19:15:39;;;;;;;83.03;38.10;;;;;;;;;;10335306;28;20030;-89
2023/01/31 19:20:40;;;;;;;83.97;36.47;;;;;;;;;;10343717;28;20070;-84
2023/01/31 19:25:41;;;;;;;86.13;37.27;;;;;;;;;;10369818;28;20030;-86
2023/01/31 19:30:42;;;;;;;73.30;33.53;;;;;;;;;;10337661;28;20500;-83
2023/01/31 19:35:43;;;;;;;97.37;40.80;;;;;;;;;;10346542;28;20040;-85
2023/01/31 19:40:46;;;;;;;97.43;43.37;;;;;;;;;;10284210;28;20404;-87
2023/01/31 19:45:47;;;;;;;88.37;38.87;;;;;;;;;;10289563;28;20033;-84
2023/01/31 19:50:49;;;;;;;83.93;36.60;;;;;;;;;;10211430;28;20524;-84
2023/01/31 19:55:52;;;;;;;86.20;36.80;;;;;;;;;;10370443;28;20026;-87
2023/01/31 20:00:53;;;;;;;97.80;41.53;;;;;;;;;;10360949;28;20053;-86
2023/01/31 20:05:59;;;;;;;99.50;42.03;;;;;;;;;;10343287;28;20034;-85
2023/01/31 20:11:02;;;;;;;;;;;;;;;;;;10347003;28;20651;-85
2023/01/31 20:16:05;;;;;;;94.47;42.93;;;;;;;;;;10362382;28;19913;-87
2023/01/31 20:21:07;;;;;;;90.30;42.57;;;;;;;;;;10341610;28;20528;-86
2023/01/31 20:26:09;;;;;;;107.90;47.17;;;;;;;;;;10350808;28;20066;-87
2023/01/31 20:31:11;;;;;;;100.53;44.93;;;;;;;;;;10325879;28;20038;-87
2023/01/31 20:36:12;;;;;;;122.17;45.13;;;;;;;;;;10352249;28;20809;-86
2023/01/31 20:41:13;;;;;;;99.00;43.47;;;;;;;;;;10341665;28;20038;-86
2023/01/31 20:46:14;;;;;;;89.00;39.90;;;;;;;;;;10339243;28;20046;-87
2023/01/31 20:51:15;;;;;;;130.03;58.57;;;;;;;;;;10344885;28;20030;-87
2023/01/31 20:56:16;;;;;;;102.37;44.03;;;;;;;;;;10355947;28;20521;-88
2023/01/31 21:01:17;;;;;;;112.33;49.23;;;;;;;;;;10351416;28;20521;-84
2023/01/31 21:06:18;;;;;;;111.47;45.93;;;;;;;;;;10350178;28;20033;-86
2023/01/31 21:11:19;;;;;;;82.73;36.00;;;;;;;;;;10357236;28;20041;-89
2023/01/31 21:16:20;;;;;;;96.73;42.40;;;;;;;;;;10337534;28;20029;-84
2023/01/31 21:21:22;;;;;;;95.10;39.93;;;;;;;;;;10359513;28;20049;-85
2023/01/31 21:26:23;;;;;;;103.33;46.43;;;;;;;;;;10363327;28;20069;-85
2023/01/31 21:31:24;;;;;;;122.53;49.63;;;;;;;;;;10341617;28;20057;-86
2023/01/31 21:36:25;;;;;;;94.27;41.03;;;;;;;;;;10341015;28;20362;-87
2023/01/31 21:46:48;;;;;;;91.07;39.27;;;;;;;;;;10348653;28;20763;-88
2023/01/31 21:51:49;;;;;;;93.97;42.73;;;;;;;;;;10335327;28;20063;-88
2023/01/31 21:56:50;;;;;;;69.97;33.40;;;;;;;;;;10337848;28;20095;-86
2023/01/31 22:01:51;;;;;;;83.73;36.30;;;;;;;;;;10358806;28;20413;-85
2023/01/31 22:06:52;;;;;;;61.93;30.20;;;;;;;;;;10359557;28;20520;-85
2023/01/31 22:11:53;;;;;;;76.17;29.90;;;;;;;;;;10353683;28;20593;-85
2023/01/31 22:16:54;;;;;;;68.47;29.23;;;;;;;;;;10339066;28;20087;-86
2023/01/31 22:21:55;;;;;;;74.50;31.80;;;;;;;;;;10337737;28;20068;-87
2023/01/31 22:26:56;;;;;;;71.30;29.20;;;;;;;;;;10347680;28;20048;-84
2023/01/31 22:31:57;;;;;;;71.40;29.33;;;;;;;;;;10346070;28;20030;-86
2023/01/31 22:36:58;;;;;;;83.47;34.97;;;;;;;;;;10341757;28;20034;-86
2023/01/31 22:41:59;;;;;;;84.10;33.47;;;;;;;;;;10339699;28;20477;-85
2023/01/31 22:47:00;;;;;;;65.10;27.87;;;;;;;;;;10343183;28;20505;-84
2023/01/31 22:52:01;;;;;;;62.97;27.57;;;;;;;;;;10348990;28;20563;-85
2023/01/31 22:57:02;;;;;;;117.43;48.23;;;;;;;;;;10341517;28;20057;-85
2023/01/31 23:02:03;;;;;;;58.57;26.33;;;;;;;;;;10347644;28;20037;-86
2023/01/31 23:07:04;;;;;;;52.40;23.83;;;;;;;;;;10346725;28;20627;-88
2023/01/31 23:12:05;;;;;;;42.90;21.93;;;;;;;;;;10362000;28;20552;-86
2023/01/31 23:22:27;;;;;;;42.17;19.10;;;;;;;;;;10366050;28;20112;-86
2023/01/31 23:27:28;;;;;;;42.80;18.70;;;;;;;;;;10353968;28;20112;-86
2023/01/31 23:32:29;;;;;;;37.37;17.70;;;2.00;99.90;;;;;;10366638;28;20038;-87
2023/01/31 23:37:30;;;;;;;41.47;18.77;;;;;;;;;;10362930;28;20080;-88
2023/01/31 23:42:31;;;;;;;43.20;19.50;;;;;;;;;;10365814;28;20044;-85
2023/01/31 23:47:32;;;;;;;45.03;22.93;;;;;;;;;;10342606;28;20133;-87
2023/01/31 23:52:33;;;;;;;48.43;22.90;;;;;;;;;;10358207;28;20499;-87
2023/01/31 23:57:34;;;;;;;42.50;21.03;;;;;;;;;;10342697;28;20509;-87
